Main page
METAR-TAF:

METAR-TAF

Airports :

Philip S. W. Goldson International Airport

Belize City, Belize

latitude: 17-32N, longitude: 088-18W, elevation: 5 m

Current weather observation

The report was made 30 minutes ago, at 11:00 UTC
Wind 2 kt from the South/Southeast
Temperature 27°C
Humidity 84%
Pressure 1013 hPa
Visibility 10 km or more
Broken clouds at a height of 1800 ft
light rain showers

METAR: MZBZ 151100Z 15002KT 9999 -SHRA BKN018 27/24 A2993 Q1013 NOSIG

Time: 05:30 (11:30 UTC)

Forecast

The report was made 8 hours and 45 minutes ago, at 02:45 UTC
Forecast valid from 15 at 06 UTC to 16 at 06 UTC
Wind 7 kt from the East
Visibility 10 km or more
Scattered clouds at a height of 2100 ft
Probability 30% :
Temporary
from 15 at 12 UTC to 15 at 17 UTC
Visibility: 5000 m
Broken clouds at a height of 1400 ft
rain showers

TAF: MZBZ 150245Z 1506/1606 09007KT 9999 SCT021 PROB30 TEMPO 1512/1517 5000 SHRA BKN014

Weather observations and forecasts of more than 4000 airports (METAR and TAF reports).

The available stations are represented by yellow and red dots on the map.

Hover mouse over dot to see the name of the station.

Then click to see weather observations and forecasts.

To change the map : click on the green buttons with a black cross to zoom in, on the green button with a dash to zoom out, or on the green arrows for adjacent maps.


METAR-TAF: